Time;durP1;ratioP1;P1;durP2;ratioP2;P2;SDS_P1;SDS_P2;PMS_P1;PMS_P2;Temp;Humidity;BMP_temperature;BMP_pressure;BME280_temperature;BME280_humidity;BME280_pressure;Samples;Min_cycle;Max_cycle;Signal;HPM_P1;HPM_P2
2021/05/25 00:02:32;;;;;;;6.50;0.70;;;18.90;41.80;;;;;;6297897;28;20036;-76
2021/05/25 00:05:34;;;;;;;1.27;0.35;;;18.90;42.20;;;;;;6298653;28;20042;-76
2021/05/25 00:08:35;;;;;;;2.78;0.60;;;18.90;42.40;;;;;;6290228;28;20040;-77
2021/05/25 00:11:37;;;;;;;1.88;0.80;;;18.80;42.40;;;;;;6306075;28;20575;-77
2021/05/25 00:14:38;;;;;;;2.33;0.70;;;18.80;43.10;;;;;;6324217;28;20032;-77
2021/05/25 00:17:39;;;;;;;4.60;0.70;;;18.60;43.80;;;;;;6288445;28;20064;-77
2021/05/25 00:20:41;;;;;;;2.90;0.52;;;18.40;45.00;;;;;;6310759;28;20484;-76
2021/05/25 00:23:43;;;;;;;2.28;0.75;;;18.30;45.40;;;;;;6279652;28;20090;-77
2021/05/25 00:26:44;;;;;;;1.50;0.55;;;18.30;45.40;;;;;;6264259;28;20036;-77
2021/05/25 00:29:45;;;;;;;1.58;0.40;;;18.20;45.40;;;;;;6297749;28;20076;-76
2021/05/25 00:32:46;;;;;;;4.28;0.85;;;18.20;45.60;;;;;;6321550;28;20040;-76
2021/05/25 00:35:47;;;;;;;1.85;0.55;;;18.20;45.80;;;;;;6322855;28;20032;-76
2021/05/25 00:38:48;;;;;;;2.33;0.60;;;18.10;46.10;;;;;;6288708;28;20097;-77
2021/05/25 00:41:49;;;;;;;1.90;0.57;;;18.00;46.70;;;;;;6304018;28;20044;-76
2021/05/25 00:44:51;;;;;;;1.02;0.60;;;18.00;46.90;;;;;;6288889;28;20476;-77
2021/05/25 00:47:52;;;;;;;3.25;0.52;;;17.90;46.70;;;;;;6288784;28;20439;-76
2021/05/25 00:50:55;;;;;;;7.90;0.50;;;17.80;46.30;;;;;;6308374;28;20373;-76
2021/05/25 00:53:56;;;;;;;1.98;0.35;;;17.70;45.00;;;;;;6298263;28;20041;-77
2021/05/25 00:56:59;;;;;;;2.40;0.60;;;17.60;43.70;;;;;;6264482;28;20064;-77
2021/05/25 01:00:00;;;;;;;4.47;0.60;;;17.50;43.50;;;;;;6281312;28;20036;-76
2021/05/25 01:03:02;;;;;;;3.95;0.77;;;17.50;43.60;;;;;;6281004;28;20040;-76
2021/05/25 01:06:03;;;;;;;1.48;0.40;;;17.50;42.90;;;;;;6281226;28;20123;-78
2021/05/25 01:09:05;;;;;;;5.20;0.80;;;17.30;41.90;;;;;;6299622;28;20422;-77
2021/05/25 01:12:09;;;;;;;3.80;0.65;;;17.30;41.40;;;;;;6280979;28;20453;-78
2021/05/25 01:15:11;;;;;;;1.95;0.40;;;17.20;41.10;;;;;;6281045;28;20453;-77
2021/05/25 01:18:13;;;;;;;4.32;0.65;;;17.20;41.30;;;;;;6298733;28;20110;-77
2021/05/25 01:21:14;;;;;;;2.58;0.50;;;17.20;41.40;;;;;;6273935;28;20029;-78
2021/05/25 01:24:15;;;;;;;2.33;0.57;;;17.20;41.10;;;;;;6273349;28;20048;-80
2021/05/25 01:27:16;;;;;;;4.45;0.55;;;17.10;41.70;;;;;;6273286;28;20057;-77
2021/05/25 01:30:19;;;;;;;0.73;0.35;;;17.10;41.10;;;;;;6276932;28;20047;-76
2021/05/25 01:33:22;;;;;;;0.95;0.40;;;17.10;40.70;;;;;;6294094;28;20033;-77
2021/05/25 01:36:23;;;;;;;0.73;0.28;;;17.10;40.60;;;;;;6279611;28;20094;-77
2021/05/25 01:39:24;;;;;;;0.60;0.40;;;17.10;40.40;;;;;;6260252;28;20116;-77
2021/05/25 01:42:37;;;;;;;0.35;0.35;;;17.10;40.10;;;;;;6294709;28;20025;-78
2021/05/25 01:45:39;;;;;;;0.88;0.47;;;17.10;40.40;;;;;;6292802;28;20045;-76
2021/05/25 01:48:40;;;;;;;2.10;0.52;;;17.10;40.60;;;;;;6301759;28;20036;-77
2021/05/25 01:51:49;;;;;;;1.23;0.50;;;17.10;40.80;;;;;;6265026;28;20049;-77
2021/05/25 01:54:58;;;;;;;1.65;0.40;;;17.00;41.00;;;;;;6275310;28;20033;-76
2021/05/25 01:58:04;;;;;;;0.70;0.40;;;17.00;41.10;;;;;;6276899;28;20037;-77
2021/05/25 02:01:11;;;;;;;1.02;0.40;;;16.90;41.10;;;;;;6274625;28;20029;-79
2021/05/25 02:04:12;;;;;;;3.95;0.70;;;16.90;41.60;;;;;;6276847;28;20048;-76
2021/05/25 02:07:18;;;;;;;2.92;0.70;;;16.90;41.10;;;;;;6275514;28;20045;-76
2021/05/25 02:10:36;;;;;;;1.67;0.75;;;16.80;41.10;;;;;;6275396;28;20090;-78
2021/05/25 02:13:39;;;;;;;2.95;0.70;;;16.80;41.30;;;;;;6275256;28;20518;-76
2021/05/25 02:16:40;;;;;;;4.40;1.00;;;16.80;41.50;;;;;;6275660;28;20072;-77
2021/05/25 02:19:42;;;;;;;2.20;0.80;;;16.80;41.70;;;;;;6286930;28;20368;-77
2021/05/25 02:22:43;;;;;;;5.30;0.90;;;16.80;41.90;;;;;;6290403;28;20058;-76
2021/05/25 02:25:45;;;;;;;8.20;0.93;;;16.70;41.80;;;;;;6309569;28;20059;-76
2021/05/25 02:28:46;;;;;;;3.75;0.60;;;16.70;42.00;;;;;;6292311;28;20040;-77
2021/05/25 02:31:47;;;;;;;6.80;0.70;;;16.70;42.10;;;;;;6306971;28;20036;-78
2021/05/25 02:34:48;;;;;;;6.50;0.88;;;16.70;42.10;;;;;;6290361;28;20526;-76
2021/05/25 02:37:50;;;;;;;2.40;0.50;;;16.70;42.20;;;;;;6306558;28;20070;-77
2021/05/25 02:40:51;;;;;;;4.05;0.93;;;16.70;42.30;;;;;;6289741;28;20036;-78
2021/05/25 02:43:54;;;;;;;1.65;0.70;;;16.70;42.40;;;;;;6324493;28;20353;-77
2021/05/25 02:46:55;;;;;;;3.33;0.45;;;16.60;42.40;;;;;;6296672;28;20032;-77
2021/05/25 02:50:06;;;;;;;1.55;0.38;;;16.50;42.50;;;;;;6311709;28;20033;-77
2021/05/25 02:53:09;;;;;;;3.75;0.80;;;16.50;42.70;;;;;;6278976;28;20111;-77
2021/05/25 02:56:10;;;;;;;1.38;0.63;;;16.40;42.80;;;;;;6256755;28;20108;-78
2021/05/25 02:59:11;;;;;;;2.72;0.70;;;16.40;43.00;;;;;;6274140;28;20052;-77
2021/05/25 03:02:12;;;;;;;3.08;0.70;;;16.30;43.20;;;;;;6273005;28;20021;-76
2021/05/25 03:05:15;;;;;;;3.20;0.55;;;16.20;43.50;;;;;;6272791;28;20040;-76
2021/05/25 03:12:38;;;;;;;5.80;0.52;;;16.10;43.30;;;;;;6298536;28;20111;-76
2021/05/25 03:15:45;;;;;;;4.47;0.90;;;16.00;43.20;;;;;;6300176;28;20115;-75
2021/05/25 03:18:46;;;;;;;2.80;0.88;;;15.90;43.40;;;;;;6300019;28;20048;-75
2021/05/25 03:21:47;;;;;;;6.63;0.80;;;15.90;43.50;;;;;;6262193;28;20067;-75
2021/05/25 03:24:48;;;;;;;2.58;0.50;;;15.90;43.60;;;;;;6274171;28;20044;-76
2021/05/25 03:27:50;;;;;;;8.93;0.60;;;15.80;43.60;;;;;;6273858;28;20039;-76
2021/05/25 03:30:51;;;;;;;2.63;0.57;;;15.80;43.50;;;;;;6222342;28;1467716;-77
2021/05/25 03:33:52;;;;;;;3.15;0.50;;;15.80;43.50;;;;;;6290374;28;20055;-78
2021/05/25 03:36:53;;;;;;;1.52;0.50;;;15.70;43.60;;;;;;6296699;28;20028;-75
2021/05/25 03:39:54;;;;;;;7.47;0.85;;;15.70;43.70;;;;;;6281588;28;20052;-76
2021/05/25 03:42:55;;;;;;;6.35;0.98;;;15.70;43.60;;;;;;6282528;28;20484;-76
2021/05/25 03:45:56;;;;;;;2.92;0.40;;;15.60;43.70;;;;;;6282394;28;20032;-76
2021/05/25 03:48:57;;;;;;;2.17;0.60;;;15.60;43.80;;;;;;6299627;28;20093;-76
2021/05/25 03:51:58;;;;;;;5.30;0.85;;;15.50;43.90;;;;;;6281828;28;20064;-76
2021/05/25 03:55:01;;;;;;;6.35;0.77;;;15.50;44.10;;;;;;6282073;28;20094;-76
2021/05/25 04:01:26;;;;;;;2.70;0.70;;;15.40;44.30;;;;;;6290593;28;20377;-76
2021/05/25 04:04:27;;;;;;;4.47;0.93;;;15.40;44.40;;;;;;6297100;28;20037;-75
2021/05/25 04:07:29;;;;;;;8.45;1.08;;;15.30;44.40;;;;;;6276982;28;20048;-75
2021/05/25 04:10:30;;;;;;;4.65;0.98;;;15.30;44.50;;;;;;6256014;28;20051;-76
2021/05/25 04:13:31;;;;;;;4.90;0.77;;;15.30;44.70;;;;;;6271714;28;20068;-75
2021/05/25 04:16:33;;;;;;;3.50;0.47;;;15.20;44.70;;;;;;6273310;28;20171;-75
2021/05/25 04:19:34;;;;;;;5.38;0.63;;;15.20;44.70;;;;;;6293340;28;20037;-75
2021/05/25 04:22:35;;;;;;;2.75;0.70;;;15.10;44.80;;;;;;6273777;28;20074;-75
2021/05/25 04:25:36;;;;;;;1.20;0.70;;;15.10;44.90;;;;;;6303998;28;20058;-76
2021/05/25 04:28:38;;;;;;;3.15;0.45;;;15.10;44.90;;;;;;6295994;28;20457;-76
2021/05/25 04:31:39;;;;;;;2.67;0.60;;;15.10;44.90;;;;;;6299644;28;20044;-76
2021/05/25 04:34:40;;;;;;;5.45;0.80;;;15.10;44.80;;;;;;6279324;28;20457;-77
2021/05/25 04:37:41;;;;;;;3.05;0.40;;;15.10;44.70;;;;;;6283230;28;20063;-76
2021/05/25 04:40:44;;;;;;;6.30;0.80;;;15.00;44.70;;;;;;6297317;28;20032;-76
2021/05/25 04:43:46;;;;;;;6.85;0.50;;;14.90;44.80;;;;;;6262699;28;20044;-76
2021/05/25 04:46:47;;;;;;;0.73;0.43;;;14.90;44.80;;;;;;6266354;28;20037;-76
2021/05/25 04:49:48;;;;;;;0.50;0.30;;;14.90;44.50;;;;;;6282380;28;20033;-76
2021/05/25 04:52:50;;;;;;;4.13;0.80;;;14.90;44.10;;;;;;6293462;28;20067;-76
2021/05/25 04:55:52;;;;;;;4.65;0.60;;;15.00;43.70;;;;;;6291430;28;20037;-77
2021/05/25 04:58:54;;;;;;;4.65;0.90;;;15.00;43.20;;;;;;6268317;28;20044;-76
2021/05/25 05:01:56;;;;;;;1.52;0.32;;;15.10;42.80;;;;;;6266377;28;20051;-76
2021/05/25 05:04:57;;;;;;;1.25;0.50;;;15.20;42.60;;;;;;6271796;28;20051;-76
2021/05/25 05:07:58;;;;;;;3.10;0.55;;;15.20;42.20;;;;;;6274705;28;20102;-76
2021/05/25 05:11:02;;;;;;;1.48;0.60;;;15.30;41.60;;;;;;6254450;28;20048;-76
2021/05/25 05:14:03;;;;;;;0.82;0.50;;;15.40;41.00;;;;;;6269777;28;20052;-76
2021/05/25 05:17:04;;;;;;;4.47;0.65;;;15.40;40.70;;;;;;6273365;28;20052;-77
2021/05/25 05:20:07;;;;;;;1.60;0.75;;;15.50;40.70;;;;;;6260147;28;20342;-77
2021/05/25 05:23:09;;;;;;;2.00;0.60;;;15.60;40.80;;;;;;6276363;28;20458;-76
2021/05/25 05:26:10;;;;;;;3.08;0.80;;;15.80;40.80;;;;;;6262095;28;20040;-77
2021/05/25 05:29:12;;;;;;;3.00;0.77;;;15.90;40.80;;;;;;6270950;28;20094;-76
2021/05/25 05:32:14;;;;;;;5.05;1.15;;;16.10;41.00;;;;;;6283655;28;20086;-78
2021/05/25 05:35:15;;;;;;;4.90;0.90;;;16.10;41.30;;;;;;6286627;28;20045;-78
2021/05/25 05:38:16;;;;;;;3.90;0.77;;;16.20;41.60;;;;;;6277529;28;20037;-79
2021/05/25 05:41:17;;;;;;;3.00;0.90;;;16.20;41.70;;;;;;6277461;28;20032;-78
2021/05/25 05:44:18;;;;;;;9.90;1.00;;;16.30;42.00;;;;;;6271729;28;20116;-78
2021/05/25 05:47:19;;;;;;;6.88;0.82;;;16.30;42.00;;;;;;6268742;28;20037;-77
2021/05/25 05:50:21;;;;;;;5.93;0.98;;;16.30;42.00;;;;;;6270094;28;20354;-77
2021/05/25 05:53:22;;;;;;;4.10;1.05;;;16.40;41.80;;;;;;6254915;28;20037;-77
2021/05/25 05:56:24;;;;;;;2.97;0.52;;;16.40;41.70;;;;;;6266710;28;20079;-78
2021/05/25 05:59:25;;;;;;;2.30;0.60;;;16.40;41.90;;;;;;6269682;28;20469;-80
2021/05/25 06:02:30;;;;;;;5.78;0.80;;;16.40;42.30;;;;;;6258961;28;20041;-78
2021/05/25 06:05:31;;;;;;;2.95;1.25;;;16.40;42.60;;;;;;6270090;28;20038;-76
2021/05/25 06:08:33;;;;;;;2.38;0.95;;;16.40;42.40;;;;;;6292486;28;20024;-78
2021/05/25 06:11:34;;;;;;;3.70;0.93;;;16.40;42.00;;;;;;6285229;28;20112;-77
2021/05/25 06:14:36;;;;;;;5.32;1.33;;;16.40;42.00;;;;;;6244928;28;20041;-81
2021/05/25 06:17:40;;;;;;;5.15;1.08;;;16.50;42.30;;;;;;6274037;28;20500;-79
2021/05/25 06:20:41;;;;;;;2.40;0.75;;;16.40;42.20;;;;;;6262404;28;20045;-80
2021/05/25 06:23:42;;;;;;;0.85;0.45;;;16.40;41.90;;;;;;6269933;28;20036;-79
2021/05/25 06:26:44;;;;;;;2.72;0.55;;;16.40;41.70;;;;;;6286561;28;20126;-78
2021/05/25 06:29:45;;;;;;;3.55;1.15;;;16.50;41.70;;;;;;6292528;28;20093;-79
2021/05/25 06:32:46;;;;;;;2.80;0.80;;;16.50;41.50;;;;;;6292083;28;20048;-79
2021/05/25 06:35:49;;;;;;;5.18;0.82;;;16.50;41.10;;;;;;6299374;28;20032;-79
2021/05/25 06:38:53;;;;;;;7.20;0.77;;;16.60;40.90;;;;;;6274804;28;20045;-79
2021/05/25 06:41:55;;;;;;;1.83;0.45;;;16.70;40.30;;;;;;6258622;28;20048;-79
2021/05/25 06:44:56;;;;;;;5.95;0.75;;;16.80;39.40;;;;;;6281740;28;20093;-79
2021/05/25 06:47:57;;;;;;;2.05;0.70;;;17.00;38.40;;;;;;6282736;28;20028;-80
2021/05/25 06:51:00;;;;;;;3.42;0.68;;;17.10;37.90;;;;;;6298791;28;20421;-80
2021/05/25 06:54:04;;;;;;;2.92;0.65;;;17.10;37.80;;;;;;6299774;28;20124;-79
2021/05/25 06:57:06;;;;;;;5.65;0.82;;;17.30;37.70;;;;;;6280764;28;20051;-78
2021/05/25 07:00:10;;;;;;;5.55;0.50;;;17.50;37.30;;;;;;6279231;28;20111;-79
2021/05/25 07:03:11;;;;;;;8.60;1.70;;;17.70;37.00;;;;;;6298879;28;20078;-78
2021/05/25 07:06:12;;;;;;;4.25;0.98;;;18.30;36.00;;;;;;6274798;28;20033;-79
2021/05/25 07:09:13;;;;;;;4.57;1.08;;;18.90;34.50;;;;;;6279404;28;20032;-79
2021/05/25 07:12:15;;;;;;;5.63;0.73;;;19.20;33.80;;;;;;6273111;28;20068;-78
2021/05/25 07:15:16;;;;;;;7.80;1.83;;;19.20;34.00;;;;;;6298875;28;20478;-80
2021/05/25 07:18:18;;;;;;;1.88;0.65;;;19.10;34.40;;;;;;6282621;28;20473;-79
2021/05/25 07:21:19;;;;;;;2.92;0.90;;;19.00;34.80;;;;;;6283431;28;20493;-79
2021/05/25 07:24:20;;;;;;;11.77;1.10;;;19.00;35.00;;;;;;6266735;28;20101;-79
2021/05/25 07:27:22;;;;;;;5.95;0.77;;;19.00;35.10;;;;;;6254166;28;20093;-78
2021/05/25 07:30:23;;;;;;;6.10;0.88;;;19.00;35.10;;;;;;6281546;28;20048;-79
2021/05/25 07:33:25;;;;;;;5.18;0.75;;;19.00;34.80;;;;;;6282346;28;20103;-78
2021/05/25 07:36:26;;;;;;;14.93;2.63;;;19.10;34.40;;;;;;6281218;28;20037;-78
2021/05/25 07:39:27;;;;;;;6.70;1.13;;;19.20;34.30;;;;;;6282424;28;20094;-78
2021/05/25 07:42:29;;;;;;;3.30;0.73;;;19.50;34.10;;;;;;6275396;28;20486;-79
2021/05/25 07:45:30;;;;;;;4.97;1.40;;;19.40;33.60;;;;;;6275703;28;20477;-79
2021/05/25 07:48:31;;;;;;;7.70;0.95;;;19.50;33.40;;;;;;6261989;28;20452;-78
2021/05/25 07:51:32;;;;;;;10.55;1.15;;;19.50;33.10;;;;;;6282883;28;20036;-78
2021/05/25 07:54:33;;;;;;;6.93;0.90;;;19.60;32.60;;;;;;6277542;28;20382;-78
2021/05/25 07:57:34;;;;;;;3.95;0.82;;;19.80;32.10;;;;;;6279194;28;20124;-79
2021/05/25 08:00:36;;;;;;;8.95;0.95;;;19.90;31.70;;;;;;6283569;28;20028;-79
2021/05/25 08:03:37;;;;;;;3.22;0.60;;;20.10;31.20;;;;;;6271087;28;20032;-78
2021/05/25 08:06:38;;;;;;;3.67;0.88;;;20.20;30.70;;;;;;6280582;28;20098;-77
2021/05/25 08:09:39;;;;;;;1.05;0.68;;;20.10;30.40;;;;;;6297351;28;20048;-78
2021/05/25 08:12:41;;;;;;;8.98;0.88;;;20.10;30.40;;;;;;6280659;28;20036;-78
2021/05/25 08:15:42;;;;;;;12.07;0.70;;;19.90;30.50;;;;;;6279653;28;20059;-79
2021/05/25 08:18:50;;;;;;;6.80;1.05;;;19.90;30.80;;;;;;6281000;28;20051;-78
2021/05/25 08:21:51;;;;;;;;;;;19.80;31.00;;;;;;6274555;28;20036;-77
2021/05/25 08:24:52;;;;;;;31.98;3.00;;;19.80;31.20;;;;;;6294588;28;19920;-79
2021/05/25 08:27:55;;;;;;;6.97;0.93;;;19.90;31.20;;;;;;6278147;28;20101;-79
2021/05/25 08:30:56;;;;;;;3.10;0.52;;;20.00;30.80;;;;;;6297084;28;20097;-78
2021/05/25 08:33:57;;;;;;;2.78;0.82;;;20.00;30.80;;;;;;6302511;28;20025;-78
2021/05/25 08:36:59;;;;;;;5.53;0.80;;;19.90;30.90;;;;;;6294498;28;20028;-80
2021/05/25 08:40:01;;;;;;;5.68;0.85;;;19.90;31.20;;;;;;6279994;28;20047;-79
2021/05/25 08:43:04;;;;;;;1.48;0.65;;;19.90;30.90;;;;;;6287603;28;20087;-78
2021/05/25 08:46:06;;;;;;;10.93;1.00;;;20.10;31.00;;;;;;6272380;28;20450;-79
2021/05/25 08:49:11;;;;;;;30.30;2.17;;;20.20;30.80;;;;;;6263870;28;20496;-79
2021/05/25 08:52:15;;;;;;;0.82;0.40;;;20.30;30.30;;;;;;6248125;28;20453;-79
2021/05/25 08:55:16;;;;;;;6.43;0.65;;;20.50;30.00;;;;;;6275911;28;20055;-79
2021/05/25 08:58:20;;;;;;;1.45;0.63;;;20.60;29.60;;;;;;6280845;28;20025;-79
2021/05/25 09:01:21;;;;;;;3.35;0.80;;;20.60;29.30;;;;;;6279006;28;20036;-79
2021/05/25 09:04:22;;;;;;;2.10;0.55;;;20.70;29.30;;;;;;6280163;28;20464;-79
2021/05/25 09:07:35;;;;;;;2.00;0.63;;;20.70;29.00;;;;;;6278653;28;20071;-78
2021/05/25 09:10:38;;;;;;;2.70;0.55;;;20.80;28.60;;;;;;6277366;28;20101;-78
2021/05/25 09:13:39;;;;;;;1.65;0.52;;;20.80;28.50;;;;;;6276830;28;20442;-79
2021/05/25 09:16:40;;;;;;;0.43;0.30;;;20.90;28.60;;;;;;6291757;28;20029;-79
2021/05/25 09:19:48;;;;;;;1.55;0.52;;;21.00;28.30;;;;;;6287363;28;20033;-80
2021/05/25 09:22:50;;;;;;;1.50;0.40;;;21.00;28.00;;;;;;6259227;28;20067;-79
2021/05/25 09:25:57;;;;;;;4.65;0.63;;;21.00;27.80;;;;;;6293776;28;20041;-79
2021/05/25 09:29:06;;;;;;;1.33;0.50;;;21.00;27.80;;;;;;6270367;28;20029;-78
2021/05/25 09:32:13;;;;;;;0.90;0.40;;;21.10;27.60;;;;;;6271392;28;20045;-79
2021/05/25 09:35:17;;;;;;;2.80;0.65;;;21.20;27.70;;;;;;6269847;28;20461;-79
2021/05/25 09:38:18;;;;;;;0.65;0.40;;;21.20;27.50;;;;;;6254171;28;20037;-78
2021/05/25 09:41:19;;;;;;;3.47;0.70;;;21.10;27.50;;;;;;6257206;28;20362;-80
2021/05/25 09:44:20;;;;;;;3.15;0.55;;;21.20;27.70;;;;;;6264396;28;20504;-79
2021/05/25 09:47:36;;;;;;;1.58;0.57;;;21.30;27.70;;;;;;6255618;28;20033;-80
2021/05/25 09:50:39;;;;;;;0.30;0.30;;;21.60;27.30;;;;;;6276265;28;20033;-78
2021/05/25 09:53:49;;;;;;;3.28;0.82;;;21.80;27.00;;;;;;6274984;28;20058;-80
2021/05/25 09:56:57;;;;;;;1.40;0.38;;;21.90;26.90;;;;;;6274561;28;20350;-79
2021/05/25 09:59:59;;;;;;;1.67;0.40;;;21.80;26.90;;;;;;6275436;28;20052;-78
2021/05/25 10:03:21;;;;;;;0.20;0.20;;;21.70;27.10;;;;;;6260279;28;20476;-79
2021/05/25 10:06:24;;;;;;;2.53;0.50;;;21.60;27.20;;;;;;6297489;28;20028;-78
2021/05/25 10:09:25;;;;;;;1.02;0.50;;;21.50;27.30;;;;;;6292122;28;20041;-79
2021/05/25 10:12:28;;;;;;;3.38;0.63;;;21.40;27.40;;;;;;6271410;28;20456;-78
2021/05/25 10:15:30;;;;;;;4.63;0.82;;;21.40;27.70;;;;;;6272703;28;20071;-78
2021/05/25 10:21:46;;;;;;;1.85;0.43;;;21.40;27.60;;;;;;6259608;28;20116;-78
2021/05/25 10:24:49;;;;;;;3.58;0.55;;;21.30;27.60;;;;;;6285940;28;20048;-78
2021/05/25 10:27:51;;;;;;;0.95;0.30;;;21.30;27.90;;;;;;6293761;28;20032;-80
2021/05/25 10:30:56;;;;;;;1.05;0.68;;;21.30;27.90;;;;;;6254372;28;20411;-79
2021/05/25 10:34:12;;;;;;;1.95;0.60;;;21.20;27.80;;;;;;6293998;28;20038;-80
2021/05/25 10:37:14;;;;;;;1.48;0.45;;;21.20;27.90;;;;;;6296087;28;20028;-80
2021/05/25 10:40:20;;;;;;;0.77;0.30;;;21.20;27.70;;;;;;6283331;28;20036;-79
2021/05/25 10:43:30;;;;;;;2.35;0.90;;;21.20;27.60;;;;;;6296179;28;20037;-79
2021/05/25 10:46:32;;;;;;;0.73;0.30;;;21.10;27.90;;;;;;6302163;28;20040;-79
2021/05/25 10:49:54;;;;;;;0.85;0.35;;;21.00;28.00;;;;;;6286801;28;20466;-78
2021/05/25 10:52:56;;;;;;;3.55;0.70;;;21.00;28.00;;;;;;6293597;28;20115;-78
2021/05/25 10:55:57;;;;;;;2.15;0.50;;;21.10;28.20;;;;;;6295855;28;20120;-79
2021/05/25 10:59:05;;;;;;;2.70;0.35;;;21.20;28.30;;;;;;6287508;28;20053;-79
2021/05/25 11:02:06;;;;;;;1.42;0.30;;;22.00;27.70;;;;;;6281102;28;20120;-78
2021/05/25 11:05:30;;;;;;;3.28;0.68;;;23.20;26.90;;;;;;6277637;28;20089;-79
2021/05/25 11:08:37;;;;;;;3.22;0.50;;;24.70;25.30;;;;;;6261275;28;20349;-79
2021/05/25 11:11:38;;;;;;;1.25;0.55;;;25.60;24.30;;;;;;6278001;28;20051;-79
2021/05/25 11:15:17;;;;;;;2.35;0.60;;;26.40;23.60;;;;;;6295908;28;20047;-80
2021/05/25 11:18:33;;;;;;;1.10;0.40;;;26.90;23.10;;;;;;6291760;28;20032;-79
2021/05/25 11:24:53;;;;;;;11.70;0.70;;;25.40;23.40;;;;;;6275151;28;20349;-78
2021/05/25 11:27:57;;;;;;;8.95;0.75;;;25.40;24.00;;;;;;6266597;28;20029;-78
2021/05/25 11:31:07;;;;;;;3.58;0.80;;;25.90;23.60;;;;;;6251863;28;20087;-80
2021/05/25 11:34:08;;;;;;;1.50;0.90;;;26.60;23.00;;;;;;6270761;28;20051;-79
2021/05/25 11:37:14;;;;;;;3.25;0.68;;;27.40;22.60;;;;;;6270957;28;20476;-79
2021/05/25 11:40:17;;;;;;;2.63;0.60;;;27.30;22.20;;;;;;6244992;28;20435;-80
2021/05/25 11:43:20;;;;;;;3.42;0.40;;;27.40;22.10;;;;;;6259387;28;20033;-79
2021/05/25 11:46:36;;;;;;;2.13;0.50;;;27.30;22.30;;;;;;6253208;28;20036;-78
2021/05/25 11:49:43;;;;;;;5.13;0.50;;;27.20;22.50;;;;;;6253385;28;20174;-80
2021/05/25 11:52:48;;;;;;;1.80;0.60;;;27.50;22.10;;;;;;6231072;28;20101;-80
2021/05/25 11:55:49;;;;;;;3.70;0.85;;;27.60;21.70;;;;;;6273614;28;20094;-80
2021/05/25 11:58:56;;;;;;;4.30;0.35;;;28.20;21.40;;;;;;6277295;28;20047;-79
2021/05/25 12:01:57;;;;;;;2.60;0.43;;;28.90;20.50;;;;;;6275721;28;20052;-79
2021/05/25 12:05:15;;;;;;;0.70;0.38;;;29.10;19.80;;;;;;6286485;28;20370;-79
2021/05/25 12:08:17;;;;;;;1.70;0.40;;;29.20;19.60;;;;;;6286346;28;20036;-78
2021/05/25 12:11:39;;;;;;;1.40;0.50;;;29.40;19.70;;;;;;6295948;28;20338;-79
2021/05/25 12:14:40;;;;;;;2.63;0.60;;;29.20;20.20;;;;;;6278169;28;20051;-79
2021/05/25 12:17:44;;;;;;;3.05;0.45;;;29.40;20.10;;;;;;6296377;28;20041;-78
2021/05/25 12:20:51;;;;;;;2.55;0.80;;;29.00;20.10;;;;;;6277264;28;20035;-79
2021/05/25 12:23:52;;;;;;;1.60;0.43;;;28.30;20.50;;;;;;6289514;28;20029;-79
2021/05/25 12:26:55;;;;;;;2.63;0.32;;;28.00;20.90;;;;;;6253449;28;20033;-78
2021/05/25 12:29:56;;;;;;;3.40;0.60;;;28.30;20.90;;;;;;6272210;28;20461;-79
2021/05/25 12:32:58;;;;;;;1.42;0.50;;;28.70;20.40;;;;;;6267424;28;20045;-78
2021/05/25 12:36:15;;;;;;;2.28;0.60;;;29.00;20.00;;;;;;6277270;28;20029;-78
2021/05/25 12:39:25;;;;;;;2.95;0.77;;;29.30;19.60;;;;;;6283965;28;20037;-79
2021/05/25 12:42:26;;;;;;;4.20;1.13;;;29.80;19.50;;;;;;6268356;28;20370;-80
2021/05/25 12:45:30;;;;;;;0.60;0.40;;;30.30;18.90;;;;;;6284185;28;20044;-79
2021/05/25 12:48:37;;;;;;;46.80;2.97;;;30.50;18.80;;;;;;6248010;28;20052;-78
2021/05/25 12:51:38;;;;;;;0.68;0.30;;;30.60;18.80;;;;;;6254671;28;20064;-78
2021/05/25 12:54:49;;;;;;;2.22;0.57;;;30.90;18.80;;;;;;6245932;28;20312;-78
2021/05/25 12:57:52;;;;;;;5.40;0.65;;;31.20;18.50;;;;;;6265351;28;20112;-78
2021/05/25 13:00:56;;;;;;;1.38;0.40;;;31.40;18.10;;;;;;6285357;28;20138;-79
2021/05/25 13:04:03;;;;;;;4.22;0.57;;;31.60;17.60;;;;;;6269020;28;20128;-79
2021/05/25 13:07:08;;;;;;;0.98;0.47;;;31.80;17.60;;;;;;6285176;28;20033;-77
2021/05/25 13:10:22;;;;;;;1.98;0.30;;;32.40;17.30;;;;;;6286253;28;20454;-78
2021/05/25 13:13:25;;;;;;;0.82;0.30;;;32.90;16.50;;;;;;6267439;28;20128;-79
2021/05/25 13:16:29;;;;;;;0.55;0.40;;;33.00;16.30;;;;;;6241608;28;20029;-80
2021/05/25 13:19:44;;;;;;;0.20;0.20;;;33.10;16.20;;;;;;6274082;28;20040;-78
2021/05/25 13:22:45;;;;;;;1.10;0.30;;;33.40;16.20;;;;;;6262386;28;20029;-78
2021/05/25 13:26:05;;;;;;;1.08;0.47;;;34.40;15.90;;;;;;6273537;28;20029;-78
2021/05/25 13:29:10;;;;;;;0.38;0.20;;;34.90;15.30;;;;;;6271993;28;20029;-79
2021/05/25 13:32:11;;;;;;;0.52;0.28;;;35.50;14.20;;;;;;6288538;28;20163;-78
2021/05/25 13:35:12;;;;;;;1.70;0.40;;;36.10;13.60;;;;;;6288201;28;20083;-78
2021/05/25 13:38:13;;;;;;;4.57;0.60;;;36.50;13.30;;;;;;6272267;28;20029;-78
2021/05/25 13:41:17;;;;;;;0.73;0.50;;;36.90;13.40;;;;;;6270345;28;20048;-78
2021/05/25 13:44:19;;;;;;;4.53;0.60;;;37.30;13.00;;;;;;6271473;28;20064;-79
2021/05/25 13:47:20;;;;;;;2.03;0.50;;;37.80;12.60;;;;;;6271072;28;20045;-78
2021/05/25 13:50:25;;;;;;;1.30;0.50;;;37.80;12.40;;;;;;6272723;28;20045;-79
2021/05/25 13:53:27;;;;;;;0.73;0.50;;;37.80;12.50;;;;;;6286835;28;20462;-80
2021/05/25 13:56:34;;;;;;;0.40;0.28;;;38.30;12.30;;;;;;6248924;28;20086;-79
2021/05/25 13:59:48;;;;;;;0.65;0.30;;;38.50;12.20;;;;;;6272885;28;20056;-79
2021/05/25 14:02:50;;;;;;;1.50;0.30;;;38.10;12.00;;;;;;6261622;28;20090;-80
2021/05/25 14:05:51;;;;;;;1.33;0.40;;;38.00;12.00;;;;;;6243046;28;20045;-78
2021/05/25 14:08:53;;;;;;;1.38;0.50;;;38.20;12.30;;;;;;6265015;28;20036;-78
2021/05/25 14:11:57;;;;;;;0.50;0.40;;;38.80;12.10;;;;;;6253947;28;20366;-78
2021/05/25 14:14:58;;;;;;;1.55;0.45;;;39.00;11.70;;;;;;6247322;28;20029;-78
2021/05/25 14:17:59;;;;;;;1.58;0.35;;;39.20;11.60;;;;;;6247149;28;20033;-78
2021/05/25 14:21:04;;;;;;;0.68;0.30;;;39.50;11.20;;;;;;6267470;28;20037;-79
2021/05/25 14:24:06;;;;;;;0.40;0.22;;;39.10;11.50;;;;;;6266783;28;20447;-78
2021/05/25 14:27:07;;;;;;;0.60;0.32;;;38.80;11.70;;;;;;6253355;28;20442;-79
2021/05/25 14:30:08;;;;;;;4.57;1.65;;;38.70;11.70;;;;;;6255936;28;20162;-80
2021/05/25 14:33:12;;;;;;;1.25;0.50;;;38.40;11.70;;;;;;6285655;28;20057;-79
2021/05/25 14:36:13;;;;;;;2.13;0.80;;;38.00;11.80;;;;;;6263306;28;20056;-79
2021/05/25 14:39:14;;;;;;;5.43;0.50;;;37.90;11.90;;;;;;6243628;28;20053;-79
2021/05/25 14:42:15;;;;;;;2.78;0.50;;;38.00;11.80;;;;;;6229221;28;20350;-79
2021/05/25 14:45:17;;;;;;;3.42;1.58;;;38.30;11.90;;;;;;6262951;28;20470;-79
2021/05/25 14:48:19;;;;;;;5.15;0.55;;;38.70;11.80;;;;;;6245951;28;20037;-79
2021/05/25 14:51:23;;;;;;;2.50;0.52;;;39.20;11.70;;;;;;6267699;28;20075;-78
2021/05/25 14:54:24;;;;;;;2.65;0.30;;;39.20;11.70;;;;;;6282558;28;20108;-79
2021/05/25 14:57:25;;;;;;;2.05;0.40;;;39.10;11.80;;;;;;6278271;28;20487;-79
2021/05/25 15:00:29;;;;;;;3.70;0.20;;;38.80;11.70;;;;;;6259044;28;20051;-79
2021/05/25 15:03:40;;;;;;;0.85;0.40;;;37.90;11.90;;;;;;6267970;28;20120;-78
2021/05/25 15:06:47;;;;;;;1.38;0.52;;;36.40;12.70;;;;;;6271950;28;20044;-78
2021/05/25 15:10:03;;;;;;;2.75;0.30;;;34.80;13.60;;;;;;6270525;28;20124;-79
2021/05/25 15:13:05;;;;;;;0.85;0.30;;;33.50;14.40;;;;;;6268386;28;20049;-79
2021/05/25 15:16:10;;;;;;;1.20;0.35;;;32.70;15.00;;;;;;6247774;28;20033;-79
2021/05/25 15:19:11;;;;;;;3.50;0.40;;;32.90;14.60;;;;;;6283974;28;20042;-78
2021/05/25 15:22:14;;;;;;;1.02;0.40;;;33.50;14.00;;;;;;6253876;28;20052;-78
2021/05/25 15:25:17;;;;;;;0.98;0.30;;;34.00;13.70;;;;;;6287748;28;20063;-78
2021/05/25 15:28:18;;;;;;;0.88;0.40;;;34.70;13.50;;;;;;6271176;28;20033;-78
2021/05/25 15:31:20;;;;;;;2.67;0.38;;;35.30;13.30;;;;;;6260386;28;20147;-78
2021/05/25 15:34:21;;;;;;;1.60;0.85;;;35.90;13.00;;;;;;6258890;28;20037;-79
2021/05/25 15:37:22;;;;;;;1.02;0.50;;;36.30;13.00;;;;;;6262840;28;20369;-78
2021/05/25 15:40:27;;;;;;;1.02;0.35;;;36.60;12.90;;;;;;6279818;28;20128;-78
2021/05/25 15:43:28;;;;;;;2.65;0.57;;;36.80;12.60;;;;;;6282787;28;20039;-79
2021/05/25 15:46:29;;;;;;;2.03;0.68;;;36.80;13.10;;;;;;6278221;28;20094;-79
2021/05/25 15:49:30;;;;;;;0.65;0.30;;;36.60;12.50;;;;;;6274312;28;20032;-77
2021/05/25 15:52:31;;;;;;;1.05;0.30;;;36.50;12.60;;;;;;6290733;28;20036;-77
2021/05/25 15:55:35;;;;;;;0.73;0.43;;;36.30;12.60;;;;;;6291601;28;20051;-77
2021/05/25 15:58:36;;;;;;;2.75;0.75;;;36.30;12.90;;;;;;6292726;28;20052;-77
2021/05/25 16:01:38;;;;;;;2.58;0.50;;;36.50;13.00;;;;;;6267422;28;20418;-78
2021/05/25 16:04:40;;;;;;;4.15;0.90;;;36.80;13.00;;;;;;6267019;28;20120;-78
2021/05/25 16:07:41;;;;;;;1.00;0.45;;;37.00;13.10;;;;;;6258396;28;20046;-78